ЗЦ Центральная Азия

ЗЦ Центральной Азии - "Азия-Центр" включает в себя пять республик: Казахстан, Кыргызстан, Таджикистан, Туркменистан и Узбекистан.

Зональный Центр обслуживает все аэропорты Центральной Азии по принципу "Top-down"

ЗЦ включает в себя РПИ Актобе, Алматы, Астаны, Ашхабада, Бишкека, Дашогуза, Душанбе, Оша, Самарканда, Ташкента, Туркменабата, Туркменбаши и Шымкента

В сети ВАТСИМ обслуживание воздушного движения над территорией ЗЦ Центральной Азии осуществляет позиция RU-CEN_FSS, позывной "Азия-Центр", частота 132.850.

Диспетчеры региона

Диспетчер Рейтинг Допуски *
begench atayev Student 2 UTAA_GND

Аэропорты региона

ICAO Город Название Погода
UAAA Алматы Алматы UAAA 161830Z 26002MPS 230V320 2000 R05L/P2000D R05R/P2000N BR FU SCT036CB BKN100 02/M02 Q1013 NOSIG
UCFM Бишкек Манас UCFM 161830Z 26002MPS 230V290 6000 BKN030CB 03/01 Q1012 R08/0///95 NOSIG
UAKK Караганда Караганда UAKK 161830Z 24008MPS 9999 BKN031 M01/M03 Q1011 NOSIG RMK QFE711/0949
UACC Нур-Султан Nur-Sultan UACC 161830Z 23016G21MPS 5000 -SN DRSN OVC021 M05/M09 Q1008 REBLSN RESN NOSIG RMK QFE725/0967
UTTT Ташкент Ташкент UTTT 161800Z 35008KT 9999 FEW066CB 11/08 Q1012 R08R/29//50 NOSIG
UATT Актобе Актобе UATT 161830Z 22010MPS 3600 -SN BLSN OVC038 M06/M08 Q1004 NOSIG RMK QFE733/0977
UATG Атырау Атырау UATG 161830Z 25007MPS 5000 BR SCT029CB M01/M03 Q1011 NOSIG RMK QFE760/1014
UTAA Ашхабад Ашхабад UTAA 161800Z 08006KT 040V100 9999 FEW015CB OVC015 05/02 Q1014 R88/CLRD70 NOSIG
UTSB Бухара Бухара UTSB 161800Z 01008KT 9999 SCT010 OVC044CB 05/05 Q1014 R01/290550 NOSIG
UTAT Дашогуз Дашогуз UTAT 161800Z 06002KT CAVOK M02/M03 Q1018 R26/CLRD70 NOSIG
UTDD Душанбе Душанбе UTDD 161830Z VRB01MPS 9999 FEW066CB SCT087 OVC100 10/04 Q1012 R09/29//50 NOSIG RMK QFE691/0922
UAKD Жезказган Жезказган UAKD 161430Z 25007MPS 9999 BKN012CB OVC019 M03/M06 Q1011 NOSIG RMK QFE725/0967
UAUU Костанай Наримановка UAUU 161330Z 20008MPS 9999 BKN042 M06/M08 Q0989 NOSIG RMK QFE725/0967
UTAM Мары Мары UTAM 161800Z 01004KT 6000 FEW046CB BKN046 OVC100 06/02 Q1016 R88/CLRD70 NOSIG
UCFO Ош Ош UCFO 161830Z 13003MPS 2600 FU NSC 03/M06 Q1009 R12/0///95 NOSIG
UTSS Самарканд Самарканд UTSS 161800Z 22004KT 170V260 6000 BKN056CB 10/07 Q1012 R09/19//60 NOSIG
UTST Термез Термез UTST 161800Z 36010KT 330V030 9999 BKN066CB 14/04 Q1012 R25/CLRD70 NOSIG
UTAV Туркменабад Туркменабат UTAV 161800Z 34006KT 9999 FEW030CB OVC030 06/04 Q1014 R31/CLRD70 NOSIG
UTAK Туркменбаши Туркменбаши UTAK 161800Z 08012KT 9999 BKN046 OVC100 03/M00 Q1016 R16R/19//60 NOSIG
UARR Уральск Уральск UARR 161800Z 23003MPS 9999 SCT033 M14/M15 Q1005 NOSIG RMK QFE750/1000
UTNU Ургенч Ургенч UTNU 161800Z 05006KT CAVOK M01/M03 Q1017 R31/CLRD70 NOSIG
UTDL Худжанд Худжанд UTDL 161830Z 12005MPS 5000 BR FEW066CB OVC086 10/02 Q1013 R26/CLRD70 NOSIG RMK QFE722/0963
UAII Шымкент Шымкент UAII 161830Z 34002MPS 310V010 1300 R10/P2000 -SHRA BR BKN014 OVC043CB 08/08 Q1013 NOSIG RMK QFE724/0966
UTKF
UTKA Андижан Андижан
UCFL Иссык-Куль Иссык-Куль UCFL 161800Z 34005MPS 9999 SCT016CB BKN083 M01/M03 Q1015 R07/CLRD95
UCFP Каракол Каракол
UTSL Карши Карши-Ханабад
UTSA Навои Навои UTSA 161800Z 04008KT 6000 -SHRA OVC040CB 06/05 Q1013 R07/29//60 NOSIG
UTFN Наманган Наманган UTFN 161800Z 34006KT 1900 R28/P2000N BR NSC 07/00 Q1010 R28/CLRD70 NOSIG
UTNN Нукус Нукус UTNN 161800Z 29004KT CAVOK M01/M03 Q1019 R33/CLRD60 NOSIG